EBCIEBOS

Guest
Details From EBCI - Brussels South - Charleroi
To EBOS - Oostende
Flight Number -
Tags Generated
Created
Modified
Stats Distance 74 nm / 138 km
Max Altitude 0 ft / 0 m
Waypoints 2
Social Downloads 0
Likes 0
Share VATSIM

Download

Looking for another format? Having issues loading an existing format? Contact us
Advertisement - Login to hide

Notes

Generated

Route

EBCI EBOS

ID Type Via Altitude Latitude Longitude Leg Dist Tot Dist Heading (true) Name
O EBCI APT - 0 ft / 0 m 50.45539˚ 4.43664˚ - 0 nm - -
O EBOS APT - 0 ft / 0 m 51.19832˚ 2.86670˚ 74 nm 74 nm 307° / 306° -

Altitude Profile

Advertisement - Login to hide

EBCI

Details ICAO EBCI (CRL)
Name Brussels South - Charleroi
Region Belgium
Timezone Europe/Brussels (UTC+2.0)
Stats Elevation 614 ft / 187 m (AMSL)
Location 50.459947° 4.453125°
Runways 1
Magnetic Variation 1.195° E

METAR

EBCI 270550Z 12003KT 090V180 CAVOK 20/15 Q1017 NOSIG

Decode

TAF

TAF EBCI 262310Z 2700/2806 09006KT 9999 FEW040 PROB40 TEMPO 2707/2712 VRB15G25KT 3000 SHRA TSRA PROB30 TEMPO 2712/2724 VRB20G35KT 3000 SHRA TSRAGR PROB30 TEMPO 2801/2805 4000 BR

Decode

Departure Runways

ID Width Length Bearing (true) Bearing (mag) Surface Threshold Offset Overrun Length
07 148 ft / 45 m 8,374 ft / 2,552 m 65.53° 64.34° Asphalt 1,476 ft / 450 m 0 ft / 0 m
25 148 ft / 45 m 8,374 ft / 2,552 m 245.55° 244.36° Asphalt 0 ft / 0 m 0 ft / 0 m

EBOS

Details ICAO EBOS (OST)
Name Oostende
Region Belgium
Timezone Europe/Brussels (UTC+2.0)
Stats Elevation 13 ft / 4 m (AMSL)
Location 51.199967° 2.875008°
Runways 1
Magnetic Variation 0.652° E

METAR

EBOS 270550Z 08010KT CAVOK 20/15 Q1016 NOSIG

Decode

TAF

TAF EBOS 262310Z 2700/2806 08010KT 8000 FEW035 PROB30 TEMPO 2701/2704 4000 SHRA PROB40 TEMPO 2707/2712 VRB15G25KT 3000 SHRA TSRA PROB30 TEMPO 2713/2721 VRB20G35KT 3000 SHRA TSRAGR PROB30 TEMPO 2801/2805 4000 BR

Decode

Destination Runways

ID Width Length Bearing (true) Bearing (mag) Surface Threshold Offset Overrun Length
08 148 ft / 45 m 10,515 ft / 3,205 m 76.36° 75.71° Asphalt 984 ft / 300 m 0 ft / 0 m
26 148 ft / 45 m 10,515 ft / 3,205 m 256.39° 255.74° Asphalt 1,362 ft / 415 m 0 ft / 0 m

Approach Navaids

Runway Type Ident Frequency Range Bearing (true) Bearing (mag) Slope Elevation
08 Localiser IMI 111.55 MHz 18 nm / 33 km 76.37° 75.72° - 13 ft / 4 m (AMSL)
08 Glidescope IMI 111.55 MHz 10 nm / 19 km 76.37° 75.72° 3.00° 13 ft / 4 m (AMSL)
08 DME IMI 111.55 MHz 18 nm / 33 km - - - 13 ft / 4 m (AMSL)
26 Localiser IOS 109.50 MHz 18 nm / 33 km 256.37° 255.72° - 13 ft / 4 m (AMSL)
26 Glidescope IOS 109.50 MHz 10 nm / 19 km 256.37° 255.72° 3.00° 13 ft / 4 m (AMSL)

Popular Alternatives